Enfield, Illinois
Current Conditions -  °F | °C
As of 7:35 PM on Thursday 18 Dec 2014 (Local Time) from KCUL Reporting Station
Overcast Overcast  
Wind Chill: 29°   Ceiling: 7500
Heat Index: 34°   Visibility: 7mi
Dew Point: 29°   Wind: 6mph
Humidity: 83%   Direction: 10°N
Pressure: 30.27"   Gusts: NA
Location:  38.1°N, 88.34°W
Report Text: KCUL 190135Z AUTO 01005KT 7SM OVC075 01/M02 A3027 RMK AO2 T00101016
Loading
Personal Weather Stations






























Interactive Weather Map New forecast layout! Learn more

10-Day Weather Forecast

Advertisements
Track Severe Weather on mobile